sensor_id;sensor_type;location;lat;lon;timestamp;P1;durP1;ratioP1;P2;durP2;ratioP2
20393;SDS011;10356;50.544;9.642;2024-01-27T00:02:03;8.77;;;2.93;;
20393;SDS011;10356;50.544;9.642;2024-01-27T00:04:31;9.27;;;3.00;;
20393;SDS011;10356;50.544;9.642;2024-01-27T00:06:57;10.90;;;3.50;;
20393;SDS011;10356;50.544;9.642;2024-01-27T00:09:24;9.93;;;3.20;;
20393;SDS011;10356;50.544;9.642;2024-01-27T00:11:50;9.87;;;2.90;;
20393;SDS011;10356;50.544;9.642;2024-01-27T00:14:17;8.93;;;2.53;;
20393;SDS011;10356;50.544;9.642;2024-01-27T00:16:43;14.17;;;3.50;;
20393;SDS011;10356;50.544;9.642;2024-01-27T00:19:09;13.23;;;4.03;;
20393;SDS011;10356;50.544;9.642;2024-01-27T00:21:37;9.63;;;2.67;;
20393;SDS011;10356;50.544;9.642;2024-01-27T00:24:04;9.00;;;2.70;;
20393;SDS011;10356;50.544;9.642;2024-01-27T00:26:31;11.97;;;3.13;;
20393;SDS011;10356;50.544;9.642;2024-01-27T00:28:57;10.07;;;2.77;;
20393;SDS011;10356;50.544;9.642;2024-01-27T00:31:24;6.40;;;2.87;;
20393;SDS011;10356;50.544;9.642;2024-01-27T00:33:50;9.03;;;2.87;;
20393;SDS011;10356;50.544;9.642;2024-01-27T00:36:17;9.47;;;3.30;;
20393;SDS011;10356;50.544;9.642;2024-01-27T00:38:46;9.13;;;3.10;;
20393;SDS011;10356;50.544;9.642;2024-01-27T00:41:15;12.07;;;3.70;;
20393;SDS011;10356;50.544;9.642;2024-01-27T00:43:41;10.40;;;3.40;;
20393;SDS011;10356;50.544;9.642;2024-01-27T00:46:08;11.77;;;3.77;;
20393;SDS011;10356;50.544;9.642;2024-01-27T00:48:34;9.97;;;3.30;;
20393;SDS011;10356;50.544;9.642;2024-01-27T00:51:00;16.10;;;4.23;;
20393;SDS011;10356;50.544;9.642;2024-01-27T00:53:27;8.57;;;3.00;;
20393;SDS011;10356;50.544;9.642;2024-01-27T00:55:55;10.57;;;3.47;;
20393;SDS011;10356;50.544;9.642;2024-01-27T00:58:21;9.67;;;3.17;;
20393;SDS011;10356;50.544;9.642;2024-01-27T01:00:48;9.00;;;3.70;;
20393;SDS011;10356;50.544;9.642;2024-01-27T01:03:14;13.97;;;4.07;;
20393;SDS011;10356;50.544;9.642;2024-01-27T01:05:41;10.90;;;3.60;;
20393;SDS011;10356;50.544;9.642;2024-01-27T01:08:07;11.10;;;3.73;;
20393;SDS011;10356;50.544;9.642;2024-01-27T01:10:33;10.57;;;3.50;;
20393;SDS011;10356;50.544;9.642;2024-01-27T01:13:01;16.93;;;4.27;;
20393;SDS011;10356;50.544;9.642;2024-01-27T01:15:28;14.97;;;4.47;;
20393;SDS011;10356;50.544;9.642;2024-01-27T01:17:55;13.07;;;4.20;;
20393;SDS011;10356;50.544;9.642;2024-01-27T01:20:21;13.83;;;4.00;;
20393;SDS011;10356;50.544;9.642;2024-01-27T01:22:51;10.77;;;4.00;;
20393;SDS011;10356;50.544;9.642;2024-01-27T01:25:17;13.80;;;5.00;;
20393;SDS011;10356;50.544;9.642;2024-01-27T01:27:44;11.73;;;4.30;;
20393;SDS011;10356;50.544;9.642;2024-01-27T01:30:12;14.50;;;5.23;;
20393;SDS011;10356;50.544;9.642;2024-01-27T01:32:39;12.07;;;3.57;;
20393;SDS011;10356;50.544;9.642;2024-01-27T01:35:06;16.00;;;4.07;;
20393;SDS011;10356;50.544;9.642;2024-01-27T01:37:32;15.30;;;4.40;;
20393;SDS011;10356;50.544;9.642;2024-01-27T01:39:59;23.00;;;4.53;;
20393;SDS011;10356;50.544;9.642;2024-01-27T01:42:25;16.87;;;6.27;;
20393;SDS011;10356;50.544;9.642;2024-01-27T01:44:52;12.80;;;5.10;;
20393;SDS011;10356;50.544;9.642;2024-01-27T01:47:20;18.10;;;6.20;;
20393;SDS011;10356;50.544;9.642;2024-01-27T01:49:47;31.03;;;17.87;;
20393;SDS011;10356;50.544;9.642;2024-01-27T01:52:14;29.13;;;15.37;;
20393;SDS011;10356;50.544;9.642;2024-01-27T01:54:45;21.03;;;8.07;;
20393;SDS011;10356;50.544;9.642;2024-01-27T01:57:12;115.73;;;56.07;;
20393;SDS011;10356;50.544;9.642;2024-01-27T01:59:39;128.07;;;64.63;;
20393;SDS011;10356;50.544;9.642;2024-01-27T02:02:06;99.13;;;44.40;;
20393;SDS011;10356;50.544;9.642;2024-01-27T02:04:40;26.63;;;10.20;;
20393;SDS011;10356;50.544;9.642;2024-01-27T02:07:07;15.87;;;3.97;;
20393;SDS011;10356;50.544;9.642;2024-01-27T02:09:32;43.47;;;18.60;;
20393;SDS011;10356;50.544;9.642;2024-01-27T02:11:59;15.03;;;4.97;;
20393;SDS011;10356;50.544;9.642;2024-01-27T02:14:25;13.80;;;3.67;;
20393;SDS011;10356;50.544;9.642;2024-01-27T02:16:52;12.20;;;2.93;;
20393;SDS011;10356;50.544;9.642;2024-01-27T02:19:19;14.60;;;3.17;;
20393;SDS011;10356;50.544;9.642;2024-01-27T02:21:46;7.40;;;3.10;;
20393;SDS011;10356;50.544;9.642;2024-01-27T02:24:14;7.73;;;2.97;;
20393;SDS011;10356;50.544;9.642;2024-01-27T02:26:41;15.27;;;3.17;;
20393;SDS011;10356;50.544;9.642;2024-01-27T02:29:07;18.33;;;3.90;;
20393;SDS011;10356;50.544;9.642;2024-01-27T02:31:34;14.97;;;3.17;;
20393;SDS011;10356;50.544;9.642;2024-01-27T02:34:00;17.47;;;6.70;;
20393;SDS011;10356;50.544;9.642;2024-01-27T02:36:27;9.87;;;3.80;;
20393;SDS011;10356;50.544;9.642;2024-01-27T02:38:53;17.07;;;3.40;;
20393;SDS011;10356;50.544;9.642;2024-01-27T02:41:21;8.47;;;3.30;;
20393;SDS011;10356;50.544;9.642;2024-01-27T02:43:47;13.00;;;3.30;;
20393;SDS011;10356;50.544;9.642;2024-01-27T02:46:14;13.20;;;3.00;;
20393;SDS011;10356;50.544;9.642;2024-01-27T02:48:41;15.67;;;3.37;;
20393;SDS011;10356;50.544;9.642;2024-01-27T02:51:07;16.03;;;3.23;;
20393;SDS011;10356;50.544;9.642;2024-01-27T02:53:34;13.00;;;3.00;;
20393;SDS011;10356;50.544;9.642;2024-01-27T02:56:00;15.20;;;3.50;;
20393;SDS011;10356;50.544;9.642;2024-01-27T02:58:28;8.23;;;2.70;;
20393;SDS011;10356;50.544;9.642;2024-01-27T03:00:55;17.07;;;3.30;;
20393;SDS011;10356;50.544;9.642;2024-01-27T03:03:21;16.27;;;3.10;;
20393;SDS011;10356;50.544;9.642;2024-01-27T03:05:47;17.33;;;3.90;;
20393;SDS011;10356;50.544;9.642;2024-01-27T03:08:14;14.10;;;3.07;;
20393;SDS011;10356;50.544;9.642;2024-01-27T03:10:40;9.93;;;2.90;;
20393;SDS011;10356;50.544;9.642;2024-01-27T03:13:07;11.77;;;3.13;;
20393;SDS011;10356;50.544;9.642;2024-01-27T03:15:35;15.20;;;3.13;;
20393;SDS011;10356;50.544;9.642;2024-01-27T03:18:02;12.40;;;3.00;;
20393;SDS011;10356;50.544;9.642;2024-01-27T03:20:29;13.73;;;3.10;;
20393;SDS011;10356;50.544;9.642;2024-01-27T03:22:56;19.10;;;3.03;;
20393;SDS011;10356;50.544;9.642;2024-01-27T03:25:22;11.97;;;2.90;;
20393;SDS011;10356;50.544;9.642;2024-01-27T03:27:50;11.07;;;3.60;;
20393;SDS011;10356;50.544;9.642;2024-01-27T03:30:17;12.07;;;3.47;;
20393;SDS011;10356;50.544;9.642;2024-01-27T03:32:45;17.23;;;3.73;;
20393;SDS011;10356;50.544;9.642;2024-01-27T03:35:11;16.73;;;3.80;;
20393;SDS011;10356;50.544;9.642;2024-01-27T03:37:38;11.50;;;3.57;;
20393;SDS011;10356;50.544;9.642;2024-01-27T03:40:05;15.00;;;3.50;;
20393;SDS011;10356;50.544;9.642;2024-01-27T03:42:32;15.40;;;3.30;;
20393;SDS011;10356;50.544;9.642;2024-01-27T03:44:59;12.03;;;2.93;;
20393;SDS011;10356;50.544;9.642;2024-01-27T03:47:25;17.13;;;3.97;;
20393;SDS011;10356;50.544;9.642;2024-01-27T03:49:53;18.67;;;3.60;;
20393;SDS011;10356;50.544;9.642;2024-01-27T03:52:20;11.07;;;3.70;;
20393;SDS011;10356;50.544;9.642;2024-01-27T03:54:46;13.90;;;3.60;;
20393;SDS011;10356;50.544;9.642;2024-01-27T03:57:13;14.37;;;3.63;;
20393;SDS011;10356;50.544;9.642;2024-01-27T03:59:39;16.17;;;3.57;;
20393;SDS011;10356;50.544;9.642;2024-01-27T04:02:06;20.07;;;4.90;;
20393;SDS011;10356;50.544;9.642;2024-01-27T04:04:32;12.03;;;3.37;;
20393;SDS011;10356;50.544;9.642;2024-01-27T04:07:00;14.80;;;3.37;;
20393;SDS011;10356;50.544;9.642;2024-01-27T04:09:27;12.93;;;3.53;;
20393;SDS011;10356;50.544;9.642;2024-01-27T04:11:53;9.87;;;3.30;;
20393;SDS011;10356;50.544;9.642;2024-01-27T04:14:20;10.10;;;3.07;;
20393;SDS011;10356;50.544;9.642;2024-01-27T04:16:46;15.67;;;2.90;;
20393;SDS011;10356;50.544;9.642;2024-01-27T04:19:13;19.03;;;3.93;;
20393;SDS011;10356;50.544;9.642;2024-01-27T04:21:40;13.80;;;3.70;;
20393;SDS011;10356;50.544;9.642;2024-01-27T04:24:09;13.33;;;3.87;;
20393;SDS011;10356;50.544;9.642;2024-01-27T04:26:35;24.67;;;4.70;;
20393;SDS011;10356;50.544;9.642;2024-01-27T04:29:02;13.43;;;4.07;;
20393;SDS011;10356;50.544;9.642;2024-01-27T04:31:28;14.60;;;3.40;;
20393;SDS011;10356;50.544;9.642;2024-01-27T04:33:56;10.07;;;3.23;;
20393;SDS011;10356;50.544;9.642;2024-01-27T04:36:26;10.70;;;3.83;;
20393;SDS011;10356;50.544;9.642;2024-01-27T04:38:53;13.10;;;3.33;;
20393;SDS011;10356;50.544;9.642;2024-01-27T04:41:21;12.60;;;3.63;;
20393;SDS011;10356;50.544;9.642;2024-01-27T04:43:48;15.30;;;3.10;;
20393;SDS011;10356;50.544;9.642;2024-01-27T04:46:15;9.20;;;2.83;;
20393;SDS011;10356;50.544;9.642;2024-01-27T04:48:41;10.43;;;3.30;;
20393;SDS011;10356;50.544;9.642;2024-01-27T04:51:08;13.03;;;3.60;;
20393;SDS011;10356;50.544;9.642;2024-01-27T04:53:35;14.40;;;4.07;;
20393;SDS011;10356;50.544;9.642;2024-01-27T04:56:01;13.53;;;3.50;;
20393;SDS011;10356;50.544;9.642;2024-01-27T04:58:34;13.93;;;3.97;;
20393;SDS011;10356;50.544;9.642;2024-01-27T05:01:00;16.20;;;4.10;;
20393;SDS011;10356;50.544;9.642;2024-01-27T05:03:27;20.03;;;4.40;;
20393;SDS011;10356;50.544;9.642;2024-01-27T05:05:53;19.67;;;4.37;;
20393;SDS011;10356;50.544;9.642;2024-01-27T05:08:20;15.70;;;4.50;;
20393;SDS011;10356;50.544;9.642;2024-01-27T05:10:46;17.27;;;4.80;;
20393;SDS011;10356;50.544;9.642;2024-01-27T05:13:13;9.73;;;3.57;;
20393;SDS011;10356;50.544;9.642;2024-01-27T05:15:40;16.00;;;4.40;;
20393;SDS011;10356;50.544;9.642;2024-01-27T05:18:07;10.07;;;3.87;;
20393;SDS011;10356;50.544;9.642;2024-01-27T05:20:35;16.30;;;4.50;;
20393;SDS011;10356;50.544;9.642;2024-01-27T05:23:02;14.33;;;5.27;;
20393;SDS011;10356;50.544;9.642;2024-01-27T05:25:28;21.90;;;4.77;;
20393;SDS011;10356;50.544;9.642;2024-01-27T05:27:55;12.77;;;4.27;;
20393;SDS011;10356;50.544;9.642;2024-01-27T05:30:21;17.17;;;4.70;;
20393;SDS011;10356;50.544;9.642;2024-01-27T05:32:49;14.23;;;4.73;;
20393;SDS011;10356;50.544;9.642;2024-01-27T05:35:15;13.97;;;4.57;;
20393;SDS011;10356;50.544;9.642;2024-01-27T05:37:42;12.77;;;4.10;;
20393;SDS011;10356;50.544;9.642;2024-01-27T05:40:08;18.80;;;4.40;;
20393;SDS011;10356;50.544;9.642;2024-01-27T05:42:35;24.43;;;5.53;;
20393;SDS011;10356;50.544;9.642;2024-01-27T05:45:02;15.73;;;5.23;;
20393;SDS011;10356;50.544;9.642;2024-01-27T05:47:29;21.57;;;5.23;;
20393;SDS011;10356;50.544;9.642;2024-01-27T05:49:57;17.90;;;5.80;;
20393;SDS011;10356;50.544;9.642;2024-01-27T05:52:23;18.20;;;5.20;;
20393;SDS011;10356;50.544;9.642;2024-01-27T05:54:51;16.20;;;5.10;;
20393;SDS011;10356;50.544;9.642;2024-01-27T05:57:17;14.20;;;5.87;;
20393;SDS011;10356;50.544;9.642;2024-01-27T05:59:44;13.77;;;5.13;;
20393;SDS011;10356;50.544;9.642;2024-01-27T06:02:11;14.17;;;4.77;;
20393;SDS011;10356;50.544;9.642;2024-01-27T06:04:37;17.33;;;5.00;;
20393;SDS011;10356;50.544;9.642;2024-01-27T06:07:05;12.97;;;4.53;;
20393;SDS011;10356;50.544;9.642;2024-01-27T06:09:32;17.37;;;5.23;;
20393;SDS011;10356;50.544;9.642;2024-01-27T06:11:59;15.67;;;4.27;;
20393;SDS011;10356;50.544;9.642;2024-01-27T06:14:25;16.33;;;4.90;;
20393;SDS011;10356;50.544;9.642;2024-01-27T06:16:52;15.97;;;4.80;;
20393;SDS011;10356;50.544;9.642;2024-01-27T06:19:18;17.93;;;4.20;;
20393;SDS011;10356;50.544;9.642;2024-01-27T06:21:45;10.97;;;4.90;;
20393;SDS011;10356;50.544;9.642;2024-01-27T06:24:12;15.13;;;4.97;;
20393;SDS011;10356;50.544;9.642;2024-01-27T06:26:39;21.33;;;4.93;;
20393;SDS011;10356;50.544;9.642;2024-01-27T06:29:05;20.20;;;5.60;;
20393;SDS011;10356;50.544;9.642;2024-01-27T06:31:32;17.00;;;5.33;;
20393;SDS011;10356;50.544;9.642;2024-01-27T06:33:58;14.57;;;5.33;;
20393;SDS011;10356;50.544;9.642;2024-01-27T06:36:25;22.10;;;6.10;;
20393;SDS011;10356;50.544;9.642;2024-01-27T06:38:52;19.40;;;5.70;;
20393;SDS011;10356;50.544;9.642;2024-01-27T06:41:20;21.03;;;6.03;;
20393;SDS011;10356;50.544;9.642;2024-01-27T06:43:47;19.10;;;6.10;;
20393;SDS011;10356;50.544;9.642;2024-01-27T06:46:13;15.40;;;6.10;;
20393;SDS011;10356;50.544;9.642;2024-01-27T06:48:40;22.27;;;6.13;;
20393;SDS011;10356;50.544;9.642;2024-01-27T06:51:06;19.40;;;6.17;;
20393;SDS011;10356;50.544;9.642;2024-01-27T06:53:33;15.83;;;6.40;;
20393;SDS011;10356;50.544;9.642;2024-01-27T06:55:59;21.13;;;7.27;;
20393;SDS011;10356;50.544;9.642;2024-01-27T06:58:27;17.83;;;6.10;;
20393;SDS011;10356;50.544;9.642;2024-01-27T07:00:54;17.73;;;6.23;;
20393;SDS011;10356;50.544;9.642;2024-01-27T07:03:21;21.63;;;5.87;;
20393;SDS011;10356;50.544;9.642;2024-01-27T07:05:47;21.03;;;6.03;;
20393;SDS011;10356;50.544;9.642;2024-01-27T07:08:14;19.23;;;6.00;;
20393;SDS011;10356;50.544;9.642;2024-01-27T07:10:41;14.87;;;4.90;;
20393;SDS011;10356;50.544;9.642;2024-01-27T07:13:08;19.33;;;6.13;;
20393;SDS011;10356;50.544;9.642;2024-01-27T07:15:36;20.30;;;6.30;;
20393;SDS011;10356;50.544;9.642;2024-01-27T07:18:03;17.17;;;5.27;;
20393;SDS011;10356;50.544;9.642;2024-01-27T07:20:30;25.10;;;6.40;;
20393;SDS011;10356;50.544;9.642;2024-01-27T07:22:56;18.40;;;5.33;;
20393;SDS011;10356;50.544;9.642;2024-01-27T07:25:23;20.83;;;5.20;;
20393;SDS011;10356;50.544;9.642;2024-01-27T07:27:49;11.63;;;5.40;;
20393;SDS011;10356;50.544;9.642;2024-01-27T07:30:16;19.13;;;5.50;;
20393;SDS011;10356;50.544;9.642;2024-01-27T07:32:44;22.63;;;6.10;;
20393;SDS011;10356;50.544;9.642;2024-01-27T07:35:10;15.53;;;5.57;;
20393;SDS011;10356;50.544;9.642;2024-01-27T07:37:37;23.77;;;6.50;;
20393;SDS011;10356;50.544;9.642;2024-01-27T07:40:04;16.33;;;5.90;;
20393;SDS011;10356;50.544;9.642;2024-01-27T07:42:33;25.10;;;5.80;;
20393;SDS011;10356;50.544;9.642;2024-01-27T07:45:00;16.43;;;5.37;;
20393;SDS011;10356;50.544;9.642;2024-01-27T07:47:26;19.50;;;7.13;;
20393;SDS011;10356;50.544;9.642;2024-01-27T07:49:54;20.17;;;5.93;;
20393;SDS011;10356;50.544;9.642;2024-01-27T07:52:21;18.87;;;5.50;;
20393;SDS011;10356;50.544;9.642;2024-01-27T07:54:47;23.13;;;7.93;;
20393;SDS011;10356;50.544;9.642;2024-01-27T07:57:14;21.83;;;9.07;;
20393;SDS011;10356;50.544;9.642;2024-01-27T07:59:40;18.07;;;9.03;;
20393;SDS011;10356;50.544;9.642;2024-01-27T08:02:07;19.97;;;8.13;;
20393;SDS011;10356;50.544;9.642;2024-01-27T08:04:33;25.63;;;8.87;;
20393;SDS011;10356;50.544;9.642;2024-01-27T08:07:01;22.03;;;8.37;;
20393;SDS011;10356;50.544;9.642;2024-01-27T08:09:31;20.77;;;9.07;;
20393;SDS011;10356;50.544;9.642;2024-01-27T08:11:58;25.20;;;8.80;;
20393;SDS011;10356;50.544;9.642;2024-01-27T08:14:24;26.83;;;8.30;;
20393;SDS011;10356;50.544;9.642;2024-01-27T08:16:50;21.07;;;7.60;;
20393;SDS011;10356;50.544;9.642;2024-01-27T08:19:17;18.53;;;7.27;;
20393;SDS011;10356;50.544;9.642;2024-01-27T08:21:45;26.63;;;7.47;;
20393;SDS011;10356;50.544;9.642;2024-01-27T08:24:13;27.87;;;8.03;;
20393;SDS011;10356;50.544;9.642;2024-01-27T08:26:39;21.10;;;6.90;;
20393;SDS011;10356;50.544;9.642;2024-01-27T08:29:07;22.77;;;7.20;;
20393;SDS011;10356;50.544;9.642;2024-01-27T08:31:33;25.20;;;7.63;;
20393;SDS011;10356;50.544;9.642;2024-01-27T08:34:00;28.67;;;8.53;;
20393;SDS011;10356;50.544;9.642;2024-01-27T08:36:26;20.37;;;7.17;;
20393;SDS011;10356;50.544;9.642;2024-01-27T08:38:53;20.87;;;7.60;;
20393;SDS011;10356;50.544;9.642;2024-01-27T08:41:21;18.33;;;6.90;;
20393;SDS011;10356;50.544;9.642;2024-01-27T08:43:48;22.27;;;7.53;;
20393;SDS011;10356;50.544;9.642;2024-01-27T08:46:14;26.97;;;9.47;;
20393;SDS011;10356;50.544;9.642;2024-01-27T08:48:43;26.80;;;8.70;;
20393;SDS011;10356;50.544;9.642;2024-01-27T08:51:09;24.37;;;9.57;;
20393;SDS011;10356;50.544;9.642;2024-01-27T08:53:37;21.00;;;8.90;;
20393;SDS011;10356;50.544;9.642;2024-01-27T08:56:04;27.50;;;7.43;;
20393;SDS011;10356;50.544;9.642;2024-01-27T08:58:32;25.37;;;6.97;;
20393;SDS011;10356;50.544;9.642;2024-01-27T09:00:59;30.77;;;7.80;;
20393;SDS011;10356;50.544;9.642;2024-01-27T09:03:30;24.23;;;7.10;;
20393;SDS011;10356;50.544;9.642;2024-01-27T09:05:56;19.70;;;7.10;;
20393;SDS011;10356;50.544;9.642;2024-01-27T09:08:23;19.97;;;7.27;;
20393;SDS011;10356;50.544;9.642;2024-01-27T09:10:49;27.63;;;7.23;;
20393;SDS011;10356;50.544;9.642;2024-01-27T09:13:16;18.53;;;6.73;;
20393;SDS011;10356;50.544;9.642;2024-01-27T09:15:44;19.93;;;6.37;;
20393;SDS011;10356;50.544;9.642;2024-01-27T09:18:11;20.70;;;6.53;;
20393;SDS011;10356;50.544;9.642;2024-01-27T09:20:37;14.43;;;6.73;;
20393;SDS011;10356;50.544;9.642;2024-01-27T09:23:04;27.57;;;7.03;;
20393;SDS011;10356;50.544;9.642;2024-01-27T09:25:30;23.90;;;8.53;;
20393;SDS011;10356;50.544;9.642;2024-01-27T09:27:57;20.93;;;6.87;;
20393;SDS011;10356;50.544;9.642;2024-01-27T09:30:25;16.47;;;6.47;;
20393;SDS011;10356;50.544;9.642;2024-01-27T09:32:53;23.53;;;5.97;;
20393;SDS011;10356;50.544;9.642;2024-01-27T09:35:20;22.50;;;5.97;;
20393;SDS011;10356;50.544;9.642;2024-01-27T09:37:46;20.87;;;5.67;;
20393;SDS011;10356;50.544;9.642;2024-01-27T09:40:13;17.93;;;6.33;;
20393;SDS011;10356;50.544;9.642;2024-01-27T09:42:40;21.57;;;6.10;;
20393;SDS011;10356;50.544;9.642;2024-01-27T09:45:15;18.30;;;5.57;;
20393;SDS011;10356;50.544;9.642;2024-01-27T09:47:41;22.93;;;5.73;;
20393;SDS011;10356;50.544;9.642;2024-01-27T09:50:11;17.13;;;5.43;;
20393;SDS011;10356;50.544;9.642;2024-01-27T09:52:37;19.50;;;5.43;;
20393;SDS011;10356;50.544;9.642;2024-01-27T09:55:04;19.70;;;5.33;;
20393;SDS011;10356;50.544;9.642;2024-01-27T09:57:31;15.90;;;5.20;;
20393;SDS011;10356;50.544;9.642;2024-01-27T09:59:58;19.17;;;4.93;;
20393;SDS011;10356;50.544;9.642;2024-01-27T10:02:25;25.33;;;5.03;;
20393;SDS011;10356;50.544;9.642;2024-01-27T10:04:53;25.83;;;6.57;;
20393;SDS011;10356;50.544;9.642;2024-01-27T10:07:21;22.10;;;6.07;;
20393;SDS011;10356;50.544;9.642;2024-01-27T10:09:49;21.43;;;5.27;;
20393;SDS011;10356;50.544;9.642;2024-01-27T10:12:16;18.57;;;5.97;;
20393;SDS011;10356;50.544;9.642;2024-01-27T10:14:46;23.00;;;5.30;;
20393;SDS011;10356;50.544;9.642;2024-01-27T10:17:19;18.40;;;4.73;;
20393;SDS011;10356;50.544;9.642;2024-01-27T10:19:46;21.73;;;5.63;;
20393;SDS011;10356;50.544;9.642;2024-01-27T10:22:13;18.43;;;4.63;;
20393;SDS011;10356;50.544;9.642;2024-01-27T10:24:41;20.57;;;5.17;;
20393;SDS011;10356;50.544;9.642;2024-01-27T10:27:07;17.17;;;4.73;;
20393;SDS011;10356;50.544;9.642;2024-01-27T10:29:36;16.77;;;4.53;;
20393;SDS011;10356;50.544;9.642;2024-01-27T10:32:08;18.73;;;5.67;;
20393;SDS011;10356;50.544;9.642;2024-01-27T10:34:35;15.13;;;5.43;;
20393;SDS011;10356;50.544;9.642;2024-01-27T10:37:02;20.17;;;7.23;;
20393;SDS011;10356;50.544;9.642;2024-01-27T10:39:28;20.73;;;6.50;;
20393;SDS011;10356;50.544;9.642;2024-01-27T10:41:56;18.83;;;5.90;;
20393;SDS011;10356;50.544;9.642;2024-01-27T10:44:28;23.97;;;5.00;;
20393;SDS011;10356;50.544;9.642;2024-01-27T10:46:55;14.03;;;4.63;;
20393;SDS011;10356;50.544;9.642;2024-01-27T10:49:27;18.83;;;5.17;;
20393;SDS011;10356;50.544;9.642;2024-01-27T10:51:58;18.33;;;5.10;;
20393;SDS011;10356;50.544;9.642;2024-01-27T10:54:28;18.53;;;5.17;;
20393;SDS011;10356;50.544;9.642;2024-01-27T10:56:55;19.00;;;5.10;;
20393;SDS011;10356;50.544;9.642;2024-01-27T10:59:25;18.67;;;6.03;;
20393;SDS011;10356;50.544;9.642;2024-01-27T11:01:53;15.63;;;5.23;;
20393;SDS011;10356;50.544;9.642;2024-01-27T11:04:20;22.80;;;5.10;;
20393;SDS011;10356;50.544;9.642;2024-01-27T11:06:48;22.60;;;4.83;;
20393;SDS011;10356;50.544;9.642;2024-01-27T11:09:15;20.07;;;4.73;;
20393;SDS011;10356;50.544;9.642;2024-01-27T11:11:43;18.77;;;5.20;;
20393;SDS011;10356;50.544;9.642;2024-01-27T11:14:12;14.60;;;4.13;;
20393;SDS011;10356;50.544;9.642;2024-01-27T11:16:39;17.13;;;4.33;;
20393;SDS011;10356;50.544;9.642;2024-01-27T11:19:09;17.97;;;4.90;;
20393;SDS011;10356;50.544;9.642;2024-01-27T11:21:36;21.70;;;4.30;;
20393;SDS011;10356;50.544;9.642;2024-01-27T11:24:12;13.60;;;4.67;;
20393;SDS011;10356;50.544;9.642;2024-01-27T11:26:39;16.93;;;4.70;;
20393;SDS011;10356;50.544;9.642;2024-01-27T11:29:05;16.40;;;4.50;;
20393;SDS011;10356;50.544;9.642;2024-01-27T11:31:36;16.67;;;4.13;;
20393;SDS011;10356;50.544;9.642;2024-01-27T11:34:09;14.50;;;4.23;;
20393;SDS011;10356;50.544;9.642;2024-01-27T11:36:37;14.60;;;4.83;;
20393;SDS011;10356;50.544;9.642;2024-01-27T11:39:04;13.17;;;4.43;;
20393;SDS011;10356;50.544;9.642;2024-01-27T11:41:31;14.90;;;4.27;;
20393;SDS011;10356;50.544;9.642;2024-01-27T11:43:58;16.70;;;4.20;;
20393;SDS011;10356;50.544;9.642;2024-01-27T11:46:26;11.43;;;3.70;;
20393;SDS011;10356;50.544;9.642;2024-01-27T11:48:54;18.37;;;4.60;;
20393;SDS011;10356;50.544;9.642;2024-01-27T11:51:20;16.67;;;4.27;;
20393;SDS011;10356;50.544;9.642;2024-01-27T11:53:48;14.97;;;4.17;;
20393;SDS011;10356;50.544;9.642;2024-01-27T11:56:14;13.57;;;4.60;;
20393;SDS011;10356;50.544;9.642;2024-01-27T11:58:45;17.60;;;6.17;;
20393;SDS011;10356;50.544;9.642;2024-01-27T12:01:13;18.13;;;4.80;;
20393;SDS011;10356;50.544;9.642;2024-01-27T12:03:39;21.20;;;6.10;;
20393;SDS011;10356;50.544;9.642;2024-01-27T12:06:08;45.00;;;21.73;;
20393;SDS011;10356;50.544;9.642;2024-01-27T12:08:35;19.63;;;5.67;;
20393;SDS011;10356;50.544;9.642;2024-01-27T12:11:01;15.23;;;4.27;;
20393;SDS011;10356;50.544;9.642;2024-01-27T12:13:28;14.43;;;3.97;;
20393;SDS011;10356;50.544;9.642;2024-01-27T12:15:55;13.33;;;4.20;;
20393;SDS011;10356;50.544;9.642;2024-01-27T12:18:22;22.03;;;10.10;;
20393;SDS011;10356;50.544;9.642;2024-01-27T12:20:54;17.17;;;4.37;;
20393;SDS011;10356;50.544;9.642;2024-01-27T12:23:22;19.00;;;4.60;;
20393;SDS011;10356;50.544;9.642;2024-01-27T12:25:52;17.77;;;4.10;;
20393;SDS011;10356;50.544;9.642;2024-01-27T12:28:19;11.87;;;3.30;;
20393;SDS011;10356;50.544;9.642;2024-01-27T12:30:45;20.30;;;4.20;;
20393;SDS011;10356;50.544;9.642;2024-01-27T12:33:13;17.17;;;4.10;;
20393;SDS011;10356;50.544;9.642;2024-01-27T12:35:39;13.87;;;4.37;;
20393;SDS011;10356;50.544;9.642;2024-01-27T12:38:06;16.13;;;3.97;;
20393;SDS011;10356;50.544;9.642;2024-01-27T12:40:34;17.30;;;4.10;;
20393;SDS011;10356;50.544;9.642;2024-01-27T12:43:00;13.63;;;3.80;;
20393;SDS011;10356;50.544;9.642;2024-01-27T12:45:26;22.93;;;8.27;;
20393;SDS011;10356;50.544;9.642;2024-01-27T12:47:53;19.63;;;6.67;;
20393;SDS011;10356;50.544;9.642;2024-01-27T12:50:20;15.13;;;5.00;;
20393;SDS011;10356;50.544;9.642;2024-01-27T12:52:47;20.03;;;3.53;;
20393;SDS011;10356;50.544;9.642;2024-01-27T12:55:13;15.23;;;3.43;;
20393;SDS011;10356;50.544;9.642;2024-01-27T12:57:41;15.13;;;3.37;;
20393;SDS011;10356;50.544;9.642;2024-01-27T13:00:08;20.13;;;4.40;;
20393;SDS011;10356;50.544;9.642;2024-01-27T13:02:35;13.43;;;3.73;;
20393;SDS011;10356;50.544;9.642;2024-01-27T13:05:02;14.93;;;4.20;;
20393;SDS011;10356;50.544;9.642;2024-01-27T13:07:29;19.00;;;4.23;;
20393;SDS011;10356;50.544;9.642;2024-01-27T13:09:55;17.43;;;4.60;;
20393;SDS011;10356;50.544;9.642;2024-01-27T13:12:22;14.33;;;3.70;;
20393;SDS011;10356;50.544;9.642;2024-01-27T13:14:49;16.93;;;4.20;;
20393;SDS011;10356;50.544;9.642;2024-01-27T13:17:16;13.70;;;3.83;;
20393;SDS011;10356;50.544;9.642;2024-01-27T13:19:44;17.13;;;3.80;;
20393;SDS011;10356;50.544;9.642;2024-01-27T13:22:11;15.53;;;3.57;;
20393;SDS011;10356;50.544;9.642;2024-01-27T13:24:38;16.20;;;3.87;;
20393;SDS011;10356;50.544;9.642;2024-01-27T13:27:04;15.67;;;3.80;;
20393;SDS011;10356;50.544;9.642;2024-01-27T13:29:33;14.63;;;3.40;;
20393;SDS011;10356;50.544;9.642;2024-01-27T13:32:01;11.60;;;3.37;;
20393;SDS011;10356;50.544;9.642;2024-01-27T13:34:27;14.63;;;3.03;;
20393;SDS011;10356;50.544;9.642;2024-01-27T13:36:55;10.00;;;3.23;;
20393;SDS011;10356;50.544;9.642;2024-01-27T13:39:23;13.23;;;3.40;;
20393;SDS011;10356;50.544;9.642;2024-01-27T13:41:50;18.67;;;4.00;;
20393;SDS011;10356;50.544;9.642;2024-01-27T13:44:16;20.07;;;3.90;;
20393;SDS011;10356;50.544;9.642;2024-01-27T13:46:43;16.57;;;4.30;;
20393;SDS011;10356;50.544;9.642;2024-01-27T13:49:11;16.47;;;4.47;;
20393;SDS011;10356;50.544;9.642;2024-01-27T13:51:37;14.10;;;3.53;;
20393;SDS011;10356;50.544;9.642;2024-01-27T13:54:04;17.53;;;3.67;;
20393;SDS011;10356;50.544;9.642;2024-01-27T13:56:34;13.23;;;3.67;;
20393;SDS011;10356;50.544;9.642;2024-01-27T13:59:01;18.83;;;3.70;;
20393;SDS011;10356;50.544;9.642;2024-01-27T14:01:29;17.93;;;5.00;;
20393;SDS011;10356;50.544;9.642;2024-01-27T14:03:55;15.17;;;4.17;;
20393;SDS011;10356;50.544;9.642;2024-01-27T14:06:23;15.10;;;4.33;;
20393;SDS011;10356;50.544;9.642;2024-01-27T14:08:50;16.83;;;4.43;;
20393;SDS011;10356;50.544;9.642;2024-01-27T14:11:16;13.23;;;4.07;;
20393;SDS011;10356;50.544;9.642;2024-01-27T14:13:43;13.67;;;3.27;;
20393;SDS011;10356;50.544;9.642;2024-01-27T14:16:10;17.27;;;3.47;;
20393;SDS011;10356;50.544;9.642;2024-01-27T14:18:36;17.60;;;4.80;;
20393;SDS011;10356;50.544;9.642;2024-01-27T14:21:03;13.27;;;2.40;;
20393;SDS011;10356;50.544;9.642;2024-01-27T14:23:31;14.10;;;3.03;;
20393;SDS011;10356;50.544;9.642;2024-01-27T14:25:57;10.47;;;2.63;;
20393;SDS011;10356;50.544;9.642;2024-01-27T14:28:24;14.00;;;2.57;;
20393;SDS011;10356;50.544;9.642;2024-01-27T14:30:51;13.83;;;2.43;;
20393;SDS011;10356;50.544;9.642;2024-01-27T14:33:17;14.07;;;2.70;;
20393;SDS011;10356;50.544;9.642;2024-01-27T14:35:45;11.17;;;2.20;;